sensor_id;sensor_type;location;lat;lon;timestamp;P1;durP1;ratioP1;P2;durP2;ratioP2
60436;SDS011;46289;51.992;4.498;2022-09-09T00:00:30;14.48;;;6.38;;
60436;SDS011;46289;51.992;4.498;2022-09-09T00:03:11;17.27;;;6.97;;
60436;SDS011;46289;51.992;4.498;2022-09-09T00:05:48;14.00;;;6.88;;
60436;SDS011;46289;51.992;4.498;2022-09-09T00:08:26;18.17;;;7.40;;
60436;SDS011;46289;51.992;4.498;2022-09-09T00:11:07;19.17;;;8.82;;
60436;SDS011;46289;51.992;4.498;2022-09-09T00:13:46;16.15;;;6.82;;
60436;SDS011;46289;51.992;4.498;2022-09-09T00:16:18;16.10;;;7.93;;
60436;SDS011;46289;51.992;4.498;2022-09-09T00:18:52;14.85;;;7.10;;
60436;SDS011;46289;51.992;4.498;2022-09-09T00:21:30;14.48;;;7.47;;
60436;SDS011;46289;51.992;4.498;2022-09-09T00:24:08;14.30;;;7.28;;
60436;SDS011;46289;51.992;4.498;2022-09-09T00:26:45;15.60;;;7.00;;
60436;SDS011;46289;51.992;4.498;2022-09-09T00:29:23;14.15;;;7.38;;
60436;SDS011;46289;51.992;4.498;2022-09-09T00:32:05;17.80;;;7.75;;
60436;SDS011;46289;51.992;4.498;2022-09-09T00:34:43;14.98;;;7.68;;
60436;SDS011;46289;51.992;4.498;2022-09-09T00:37:16;14.07;;;7.25;;
60436;SDS011;46289;51.992;4.498;2022-09-09T00:39:48;19.17;;;8.65;;
60436;SDS011;46289;51.992;4.498;2022-09-09T00:42:23;15.88;;;8.85;;
60436;SDS011;46289;51.992;4.498;2022-09-09T00:44:59;17.00;;;8.60;;
60436;SDS011;46289;51.992;4.498;2022-09-09T00:47:44;18.67;;;7.85;;
60436;SDS011;46289;51.992;4.498;2022-09-09T00:50:26;15.15;;;8.18;;
60436;SDS011;46289;51.992;4.498;2022-09-09T00:53:11;18.58;;;8.32;;
60436;SDS011;46289;51.992;4.498;2022-09-09T00:55:52;14.55;;;7.47;;
60436;SDS011;46289;51.992;4.498;2022-09-09T00:58:28;17.48;;;8.98;;
60436;SDS011;46289;51.992;4.498;2022-09-09T01:01:02;16.85;;;8.50;;
60436;SDS011;46289;51.992;4.498;2022-09-09T01:03:36;16.00;;;8.05;;
60436;SDS011;46289;51.992;4.498;2022-09-09T01:06:12;16.50;;;8.93;;
60436;SDS011;46289;51.992;4.498;2022-09-09T01:11:43;15.07;;;7.43;;
60436;SDS011;46289;51.992;4.498;2022-09-09T01:14:29;17.90;;;7.85;;
60436;SDS011;46289;51.992;4.498;2022-09-09T01:17:11;15.00;;;6.95;;
60436;SDS011;46289;51.992;4.498;2022-09-09T01:19:55;15.43;;;7.28;;
60436;SDS011;46289;51.992;4.498;2022-09-09T01:22:34;15.65;;;6.80;;
60436;SDS011;46289;51.992;4.498;2022-09-09T01:25:19;15.75;;;7.18;;
60436;SDS011;46289;51.992;4.498;2022-09-09T01:28:00;18.50;;;7.53;;
60436;SDS011;46289;51.992;4.498;2022-09-09T01:30:38;14.23;;;6.80;;
60436;SDS011;46289;51.992;4.498;2022-09-09T01:33:10;16.50;;;7.22;;
60436;SDS011;46289;51.992;4.498;2022-09-09T01:35:45;14.85;;;6.13;;
60436;SDS011;46289;51.992;4.498;2022-09-09T01:38:20;14.23;;;6.88;;
60436;SDS011;46289;51.992;4.498;2022-09-09T01:40:51;16.52;;;7.10;;
60436;SDS011;46289;51.992;4.498;2022-09-09T01:43:27;16.20;;;6.18;;
60436;SDS011;46289;51.992;4.498;2022-09-09T01:45:58;17.33;;;5.85;;
60436;SDS011;46289;51.992;4.498;2022-09-09T01:48:30;10.73;;;5.57;;
60436;SDS011;46289;51.992;4.498;2022-09-09T01:51:00;13.57;;;5.22;;
60436;SDS011;46289;51.992;4.498;2022-09-09T01:53:30;10.68;;;5.07;;
60436;SDS011;46289;51.992;4.498;2022-09-09T01:56:02;13.10;;;4.65;;
60436;SDS011;46289;51.992;4.498;2022-09-09T01:58:47;12.93;;;4.70;;
60436;SDS011;46289;51.992;4.498;2022-09-09T02:01:28;11.98;;;4.32;;
60436;SDS011;46289;51.992;4.498;2022-09-09T02:04:09;11.85;;;5.32;;
60436;SDS011;46289;51.992;4.498;2022-09-09T02:06:52;10.50;;;5.10;;
60436;SDS011;46289;51.992;4.498;2022-09-09T02:09:26;12.25;;;4.68;;
60436;SDS011;46289;51.992;4.498;2022-09-09T02:11:57;9.13;;;4.75;;
60436;SDS011;46289;51.992;4.498;2022-09-09T02:14:34;10.73;;;3.92;;
60436;SDS011;46289;51.992;4.498;2022-09-09T02:17:09;9.20;;;3.80;;
60436;SDS011;46289;51.992;4.498;2022-09-09T02:19:41;9.05;;;3.95;;
60436;SDS011;46289;51.992;4.498;2022-09-09T02:22:15;9.30;;;3.75;;
60436;SDS011;46289;51.992;4.498;2022-09-09T02:24:49;10.52;;;3.88;;
60436;SDS011;46289;51.992;4.498;2022-09-09T02:27:21;10.83;;;3.73;;
60436;SDS011;46289;51.992;4.498;2022-09-09T02:29:54;11.57;;;3.20;;
60436;SDS011;46289;51.992;4.498;2022-09-09T02:32:28;12.32;;;4.35;;
60436;SDS011;46289;51.992;4.498;2022-09-09T02:35:02;13.80;;;3.90;;
60436;SDS011;46289;51.992;4.498;2022-09-09T02:37:39;10.73;;;4.25;;
60436;SDS011;46289;51.992;4.498;2022-09-09T02:40:12;13.30;;;3.80;;
60436;SDS011;46289;51.992;4.498;2022-09-09T02:42:44;9.95;;;3.85;;
60436;SDS011;46289;51.992;4.498;2022-09-09T02:45:19;10.98;;;3.67;;
60436;SDS011;46289;51.992;4.498;2022-09-09T02:47:53;10.32;;;4.22;;
60436;SDS011;46289;51.992;4.498;2022-09-09T02:50:32;11.30;;;4.50;;
60436;SDS011;46289;51.992;4.498;2022-09-09T02:53:07;8.85;;;3.83;;
60436;SDS011;46289;51.992;4.498;2022-09-09T02:55:45;10.93;;;4.03;;
60436;SDS011;46289;51.992;4.498;2022-09-09T02:58:17;11.02;;;4.47;;
60436;SDS011;46289;51.992;4.498;2022-09-09T03:00:50;16.75;;;4.38;;
60436;SDS011;46289;51.992;4.498;2022-09-09T03:03:20;9.63;;;3.90;;
60436;SDS011;46289;51.992;4.498;2022-09-09T03:05:50;8.35;;;3.42;;
60436;SDS011;46289;51.992;4.498;2022-09-09T03:08:20;11.63;;;4.15;;
60436;SDS011;46289;51.992;4.498;2022-09-09T03:10:49;12.98;;;4.18;;
60436;SDS011;46289;51.992;4.498;2022-09-09T03:13:20;9.50;;;3.53;;
60436;SDS011;46289;51.992;4.498;2022-09-09T03:15:52;7.47;;;2.88;;
60436;SDS011;46289;51.992;4.498;2022-09-09T03:18:22;10.10;;;3.72;;
60436;SDS011;46289;51.992;4.498;2022-09-09T03:20:52;13.40;;;4.00;;
60436;SDS011;46289;51.992;4.498;2022-09-09T03:23:24;11.05;;;3.22;;
60436;SDS011;46289;51.992;4.498;2022-09-09T03:25:54;10.27;;;3.40;;
60436;SDS011;46289;51.992;4.498;2022-09-09T03:28:25;10.27;;;3.70;;
60436;SDS011;46289;51.992;4.498;2022-09-09T03:31:01;7.75;;;3.22;;
60436;SDS011;46289;51.992;4.498;2022-09-09T03:33:31;8.13;;;3.47;;
60436;SDS011;46289;51.992;4.498;2022-09-09T03:36:02;16.13;;;5.10;;
60436;SDS011;46289;51.992;4.498;2022-09-09T03:38:33;7.88;;;3.15;;
60436;SDS011;46289;51.992;4.498;2022-09-09T03:41:04;12.82;;;3.78;;
60436;SDS011;46289;51.992;4.498;2022-09-09T03:43:34;10.90;;;3.53;;
60436;SDS011;46289;51.992;4.498;2022-09-09T03:46:06;10.60;;;3.97;;
60436;SDS011;46289;51.992;4.498;2022-09-09T03:48:36;11.50;;;3.35;;
60436;SDS011;46289;51.992;4.498;2022-09-09T03:51:06;10.88;;;3.35;;
60436;SDS011;46289;51.992;4.498;2022-09-09T03:53:36;9.88;;;3.45;;
60436;SDS011;46289;51.992;4.498;2022-09-09T03:56:06;10.10;;;3.33;;
60436;SDS011;46289;51.992;4.498;2022-09-09T03:58:37;11.50;;;4.20;;
60436;SDS011;46289;51.992;4.498;2022-09-09T04:01:10;11.00;;;3.22;;
60436;SDS011;46289;51.992;4.498;2022-09-09T04:03:44;7.47;;;3.28;;
60436;SDS011;46289;51.992;4.498;2022-09-09T04:06:14;10.00;;;3.55;;
60436;SDS011;46289;51.992;4.498;2022-09-09T04:08:44;10.32;;;3.17;;
60436;SDS011;46289;51.992;4.498;2022-09-09T04:11:15;7.70;;;3.00;;
60436;SDS011;46289;51.992;4.498;2022-09-09T04:13:44;9.85;;;3.13;;
60436;SDS011;46289;51.992;4.498;2022-09-09T04:16:18;9.48;;;3.22;;
60436;SDS011;46289;51.992;4.498;2022-09-09T04:18:48;7.60;;;2.92;;
60436;SDS011;46289;51.992;4.498;2022-09-09T04:21:18;12.88;;;3.47;;
60436;SDS011;46289;51.992;4.498;2022-09-09T04:23:48;8.48;;;3.33;;
60436;SDS011;46289;51.992;4.498;2022-09-09T04:26:18;8.73;;;3.08;;
60436;SDS011;46289;51.992;4.498;2022-09-09T04:28:48;10.93;;;3.30;;
60436;SDS011;46289;51.992;4.498;2022-09-09T04:31:21;7.78;;;3.08;;
60436;SDS011;46289;51.992;4.498;2022-09-09T04:33:52;8.63;;;3.20;;
60436;SDS011;46289;51.992;4.498;2022-09-09T04:36:22;15.23;;;3.63;;
60436;SDS011;46289;51.992;4.498;2022-09-09T04:38:52;8.77;;;3.17;;
60436;SDS011;46289;51.992;4.498;2022-09-09T04:41:22;12.38;;;3.97;;
60436;SDS011;46289;51.992;4.498;2022-09-09T04:43:54;7.68;;;2.90;;
60436;SDS011;46289;51.992;4.498;2022-09-09T04:46:28;8.00;;;3.00;;
60436;SDS011;46289;51.992;4.498;2022-09-09T04:48:57;12.05;;;4.00;;
60436;SDS011;46289;51.992;4.498;2022-09-09T04:51:27;13.18;;;3.83;;
60436;SDS011;46289;51.992;4.498;2022-09-09T04:53:57;9.50;;;3.55;;
60436;SDS011;46289;51.992;4.498;2022-09-09T04:56:27;13.25;;;3.75;;
60436;SDS011;46289;51.992;4.498;2022-09-09T04:58:57;14.25;;;4.32;;
60436;SDS011;46289;51.992;4.498;2022-09-09T05:01:32;7.63;;;3.72;;
60436;SDS011;46289;51.992;4.498;2022-09-09T05:06:35;10.75;;;4.13;;
60436;SDS011;46289;51.992;4.498;2022-09-09T05:09:06;13.10;;;5.80;;
60436;SDS011;46289;51.992;4.498;2022-09-09T05:11:37;10.30;;;3.90;;
60436;SDS011;46289;51.992;4.498;2022-09-09T05:14:08;12.30;;;3.97;;
60436;SDS011;46289;51.992;4.498;2022-09-09T05:16:41;13.15;;;4.07;;
60436;SDS011;46289;51.992;4.498;2022-09-09T05:19:11;12.52;;;4.03;;
60436;SDS011;46289;51.992;4.498;2022-09-09T05:21:41;13.00;;;4.22;;
60436;SDS011;46289;51.992;4.498;2022-09-09T05:24:10;13.90;;;4.20;;
60436;SDS011;46289;51.992;4.498;2022-09-09T05:26:41;12.20;;;4.28;;
60436;SDS011;46289;51.992;4.498;2022-09-09T05:29:10;11.18;;;3.70;;
60436;SDS011;46289;51.992;4.498;2022-09-09T05:31:43;12.27;;;4.15;;
60436;SDS011;46289;51.992;4.498;2022-09-09T05:34:13;13.20;;;4.18;;
60436;SDS011;46289;51.992;4.498;2022-09-09T05:36:43;10.10;;;3.88;;
60436;SDS011;46289;51.992;4.498;2022-09-09T05:39:13;11.63;;;4.32;;
60436;SDS011;46289;51.992;4.498;2022-09-09T05:41:43;12.45;;;4.30;;
60436;SDS011;46289;51.992;4.498;2022-09-09T05:44:13;10.32;;;3.90;;
60436;SDS011;46289;51.992;4.498;2022-09-09T05:46:45;10.93;;;4.43;;
60436;SDS011;46289;51.992;4.498;2022-09-09T05:49:16;11.90;;;4.07;;
60436;SDS011;46289;51.992;4.498;2022-09-09T05:51:46;11.13;;;3.95;;
60436;SDS011;46289;51.992;4.498;2022-09-09T05:54:16;13.68;;;5.18;;
60436;SDS011;46289;51.992;4.498;2022-09-09T05:56:46;10.20;;;4.45;;
60436;SDS011;46289;51.992;4.498;2022-09-09T05:59:17;12.15;;;3.45;;
60436;SDS011;46289;51.992;4.498;2022-09-09T06:01:52;10.00;;;3.78;;
60436;SDS011;46289;51.992;4.498;2022-09-09T06:04:22;8.05;;;3.60;;
60436;SDS011;46289;51.992;4.498;2022-09-09T06:06:53;11.68;;;4.70;;
60436;SDS011;46289;51.992;4.498;2022-09-09T06:09:23;10.57;;;3.78;;
60436;SDS011;46289;51.992;4.498;2022-09-09T06:11:53;15.30;;;3.97;;
60436;SDS011;46289;51.992;4.498;2022-09-09T06:14:27;13.73;;;3.65;;
60436;SDS011;46289;51.992;4.498;2022-09-09T06:17:00;11.18;;;4.13;;
60436;SDS011;46289;51.992;4.498;2022-09-09T06:19:30;13.20;;;3.15;;
60436;SDS011;46289;51.992;4.498;2022-09-09T06:22:00;12.38;;;4.03;;
60436;SDS011;46289;51.992;4.498;2022-09-09T06:24:30;11.38;;;3.55;;
60436;SDS011;46289;51.992;4.498;2022-09-09T06:27:00;15.25;;;4.38;;
60436;SDS011;46289;51.992;4.498;2022-09-09T06:29:31;11.15;;;3.70;;
60436;SDS011;46289;51.992;4.498;2022-09-09T06:32:04;11.23;;;3.63;;
60436;SDS011;46289;51.992;4.498;2022-09-09T06:34:34;10.18;;;3.65;;
60436;SDS011;46289;51.992;4.498;2022-09-09T06:37:04;15.90;;;4.10;;
60436;SDS011;46289;51.992;4.498;2022-09-09T06:39:34;11.68;;;4.78;;
60436;SDS011;46289;51.992;4.498;2022-09-09T06:42:04;15.73;;;4.88;;
60436;SDS011;46289;51.992;4.498;2022-09-09T06:44:35;12.32;;;4.15;;
60436;SDS011;46289;51.992;4.498;2022-09-09T06:47:07;11.50;;;4.65;;
60436;SDS011;46289;51.992;4.498;2022-09-09T06:49:37;10.23;;;4.72;;
60436;SDS011;46289;51.992;4.498;2022-09-09T06:52:11;12.68;;;5.15;;
60436;SDS011;46289;51.992;4.498;2022-09-09T06:54:41;15.20;;;5.20;;
60436;SDS011;46289;51.992;4.498;2022-09-09T06:57:11;14.23;;;5.15;;
60436;SDS011;46289;51.992;4.498;2022-09-09T07:00:01;14.52;;;5.63;;
60436;SDS011;46289;51.992;4.498;2022-09-09T07:02:35;11.65;;;5.60;;
60436;SDS011;46289;51.992;4.498;2022-09-09T07:05:06;17.67;;;5.47;;
60436;SDS011;46289;51.992;4.498;2022-09-09T07:07:37;15.93;;;5.90;;
60436;SDS011;46289;51.992;4.498;2022-09-09T07:10:07;9.93;;;4.70;;
60436;SDS011;46289;51.992;4.498;2022-09-09T07:12:38;11.38;;;4.95;;
60436;SDS011;46289;51.992;4.498;2022-09-09T07:15:08;12.88;;;5.10;;
60436;SDS011;46289;51.992;4.498;2022-09-09T07:17:42;14.48;;;5.93;;
60436;SDS011;46289;51.992;4.498;2022-09-09T07:20:13;10.25;;;5.57;;
60436;SDS011;46289;51.992;4.498;2022-09-09T07:22:43;17.50;;;5.88;;
60436;SDS011;46289;51.992;4.498;2022-09-09T07:25:14;14.50;;;5.55;;
60436;SDS011;46289;51.992;4.498;2022-09-09T07:27:44;16.75;;;6.53;;
60436;SDS011;46289;51.992;4.498;2022-09-09T07:30:15;14.57;;;6.57;;
60436;SDS011;46289;51.992;4.498;2022-09-09T07:32:55;13.98;;;6.35;;
60436;SDS011;46289;51.992;4.498;2022-09-09T07:35:26;16.50;;;7.72;;
60436;SDS011;46289;51.992;4.498;2022-09-09T07:38:00;9.25;;;6.07;;
60436;SDS011;46289;51.992;4.498;2022-09-09T07:40:33;16.15;;;6.95;;
60436;SDS011;46289;51.992;4.498;2022-09-09T07:43:05;17.77;;;6.95;;
60436;SDS011;46289;51.992;4.498;2022-09-09T07:45:40;14.10;;;6.65;;
60436;SDS011;46289;51.992;4.498;2022-09-09T07:48:13;14.30;;;5.68;;
60436;SDS011;46289;51.992;4.498;2022-09-09T07:53:14;14.63;;;5.70;;
60436;SDS011;46289;51.992;4.498;2022-09-09T07:55:46;13.63;;;6.45;;
60436;SDS011;46289;51.992;4.498;2022-09-09T07:58:15;12.48;;;5.78;;
60436;SDS011;46289;51.992;4.498;2022-09-09T08:00:45;13.02;;;5.55;;
60436;SDS011;46289;51.992;4.498;2022-09-09T08:03:19;14.43;;;5.95;;
60436;SDS011;46289;51.992;4.498;2022-09-09T08:05:49;13.90;;;5.20;;
60436;SDS011;46289;51.992;4.498;2022-09-09T08:08:19;14.00;;;4.95;;
60436;SDS011;46289;51.992;4.498;2022-09-09T08:10:49;13.15;;;5.47;;
60436;SDS011;46289;51.992;4.498;2022-09-09T08:13:19;15.02;;;5.07;;
60436;SDS011;46289;51.992;4.498;2022-09-09T08:15:49;12.60;;;5.45;;
60436;SDS011;46289;51.992;4.498;2022-09-09T08:18:24;12.68;;;5.32;;
60436;SDS011;46289;51.992;4.498;2022-09-09T08:20:56;12.88;;;5.15;;
60436;SDS011;46289;51.992;4.498;2022-09-09T08:23:28;18.33;;;6.20;;
60436;SDS011;46289;51.992;4.498;2022-09-09T08:26:02;10.07;;;5.18;;
60436;SDS011;46289;51.992;4.498;2022-09-09T08:28:33;12.27;;;5.30;;
60436;SDS011;46289;51.992;4.498;2022-09-09T08:31:07;14.40;;;5.53;;
60436;SDS011;46289;51.992;4.498;2022-09-09T08:33:41;12.30;;;4.72;;
60436;SDS011;46289;51.992;4.498;2022-09-09T08:36:13;16.25;;;5.80;;
60436;SDS011;46289;51.992;4.498;2022-09-09T08:38:46;13.65;;;6.07;;
60436;SDS011;46289;51.992;4.498;2022-09-09T08:41:22;24.23;;;7.28;;
60436;SDS011;46289;51.992;4.498;2022-09-09T08:44:09;12.90;;;5.80;;
60436;SDS011;46289;51.992;4.498;2022-09-09T08:46:46;12.48;;;5.88;;
60436;SDS011;46289;51.992;4.498;2022-09-09T08:49:39;12.88;;;5.30;;
60436;SDS011;46289;51.992;4.498;2022-09-09T08:52:23;14.52;;;6.18;;
60436;SDS011;46289;51.992;4.498;2022-09-09T08:55:02;12.95;;;5.80;;
60436;SDS011;46289;51.992;4.498;2022-09-09T08:57:40;16.33;;;5.32;;
60436;SDS011;46289;51.992;4.498;2022-09-09T09:00:11;13.88;;;5.47;;
60436;SDS011;46289;51.992;4.498;2022-09-09T09:02:42;14.48;;;5.38;;
60436;SDS011;46289;51.992;4.498;2022-09-09T09:05:28;20.92;;;5.85;;
60436;SDS011;46289;51.992;4.498;2022-09-09T09:08:07;14.13;;;5.57;;
60436;SDS011;46289;51.992;4.498;2022-09-09T09:10:49;15.32;;;6.13;;
60436;SDS011;46289;51.992;4.498;2022-09-09T09:13:22;11.35;;;5.80;;
60436;SDS011;46289;51.992;4.498;2022-09-09T09:16:00;11.52;;;5.70;;
60436;SDS011;46289;51.992;4.498;2022-09-09T09:18:37;14.80;;;5.80;;
60436;SDS011;46289;51.992;4.498;2022-09-09T09:21:10;13.15;;;5.68;;
60436;SDS011;46289;51.992;4.498;2022-09-09T09:23:48;15.70;;;5.65;;
60436;SDS011;46289;51.992;4.498;2022-09-09T09:26:30;11.90;;;5.40;;
60436;SDS011;46289;51.992;4.498;2022-09-09T09:29:07;12.10;;;7.15;;
60436;SDS011;46289;51.992;4.498;2022-09-09T09:31:42;11.77;;;5.63;;
60436;SDS011;46289;51.992;4.498;2022-09-09T09:34:15;18.25;;;7.50;;
60436;SDS011;46289;51.992;4.498;2022-09-09T09:36:52;12.30;;;6.80;;
60436;SDS011;46289;51.992;4.498;2022-09-09T09:39:25;10.93;;;6.07;;
60436;SDS011;46289;51.992;4.498;2022-09-09T09:42:17;13.57;;;6.05;;
60436;SDS011;46289;51.992;4.498;2022-09-09T09:44:49;17.02;;;6.40;;
60436;SDS011;46289;51.992;4.498;2022-09-09T09:47:19;11.07;;;5.05;;
60436;SDS011;46289;51.992;4.498;2022-09-09T09:49:51;12.23;;;5.75;;
60436;SDS011;46289;51.992;4.498;2022-09-09T09:52:25;16.60;;;6.40;;
60436;SDS011;46289;51.992;4.498;2022-09-09T09:54:56;12.07;;;5.90;;
60436;SDS011;46289;51.992;4.498;2022-09-09T09:57:33;10.38;;;6.05;;
60436;SDS011;46289;51.992;4.498;2022-09-09T10:00:11;11.57;;;5.05;;
60436;SDS011;46289;51.992;4.498;2022-09-09T10:02:44;13.65;;;5.10;;
60436;SDS011;46289;51.992;4.498;2022-09-09T10:10:47;13.00;;;5.18;;
60436;SDS011;46289;51.992;4.498;2022-09-09T10:13:37;12.85;;;5.40;;
60436;SDS011;46289;51.992;4.498;2022-09-09T10:16:20;10.00;;;4.65;;
60436;SDS011;46289;51.992;4.498;2022-09-09T10:19:01;14.63;;;5.47;;
60436;SDS011;46289;51.992;4.498;2022-09-09T10:21:48;12.77;;;5.20;;
60436;SDS011;46289;51.992;4.498;2022-09-09T10:24:48;13.98;;;5.53;;
60436;SDS011;46289;51.992;4.498;2022-09-09T10:27:42;13.23;;;5.15;;
60436;SDS011;46289;51.992;4.498;2022-09-09T10:30:27;13.98;;;5.82;;
60436;SDS011;46289;51.992;4.498;2022-09-09T10:33:04;16.17;;;5.55;;
60436;SDS011;46289;51.992;4.498;2022-09-09T10:35:40;15.80;;;6.22;;
60436;SDS011;46289;51.992;4.498;2022-09-09T10:38:16;11.70;;;5.65;;
60436;SDS011;46289;51.992;4.498;2022-09-09T10:40:59;12.98;;;6.03;;
60436;SDS011;46289;51.992;4.498;2022-09-09T10:43:44;13.80;;;5.70;;
60436;SDS011;46289;51.992;4.498;2022-09-09T10:46:29;13.93;;;5.57;;
60436;SDS011;46289;51.992;4.498;2022-09-09T10:49:09;9.55;;;4.30;;
60436;SDS011;46289;51.992;4.498;2022-09-09T10:51:52;21.33;;;9.00;;
60436;SDS011;46289;51.992;4.498;2022-09-09T10:54:41;9.35;;;4.88;;
60436;SDS011;46289;51.992;4.498;2022-09-09T10:57:26;15.57;;;5.15;;
60436;SDS011;46289;51.992;4.498;2022-09-09T11:00:02;10.93;;;5.25;;
60436;SDS011;46289;51.992;4.498;2022-09-09T11:02:34;9.00;;;4.22;;
60436;SDS011;46289;51.992;4.498;2022-09-09T11:05:10;10.75;;;4.88;;
60436;SDS011;46289;51.992;4.498;2022-09-09T11:07:48;10.07;;;4.95;;
60436;SDS011;46289;51.992;4.498;2022-09-09T11:10:24;11.38;;;5.45;;
60436;SDS011;46289;51.992;4.498;2022-09-09T11:13:05;11.73;;;5.38;;
60436;SDS011;46289;51.992;4.498;2022-09-09T11:15:43;9.13;;;4.60;;
60436;SDS011;46289;51.992;4.498;2022-09-09T11:18:18;11.02;;;4.68;;
60436;SDS011;46289;51.992;4.498;2022-09-09T11:20:51;10.65;;;5.05;;
60436;SDS011;46289;51.992;4.498;2022-09-09T11:23:27;10.07;;;4.80;;
60436;SDS011;46289;51.992;4.498;2022-09-09T11:26:07;9.35;;;4.93;;
60436;SDS011;46289;51.992;4.498;2022-09-09T11:28:51;10.60;;;4.57;;
60436;SDS011;46289;51.992;4.498;2022-09-09T11:31:35;12.05;;;4.82;;
60436;SDS011;46289;51.992;4.498;2022-09-09T11:34:19;12.38;;;4.38;;
60436;SDS011;46289;51.992;4.498;2022-09-09T11:40:16;10.55;;;5.03;;
60436;SDS011;46289;51.992;4.498;2022-09-09T11:43:01;11.73;;;4.57;;
60436;SDS011;46289;51.992;4.498;2022-09-09T11:45:36;9.95;;;4.43;;
60436;SDS011;46289;51.992;4.498;2022-09-09T11:48:21;10.23;;;4.60;;
60436;SDS011;46289;51.992;4.498;2022-09-09T11:50:57;13.70;;;5.07;;
60436;SDS011;46289;51.992;4.498;2022-09-09T11:53:31;10.38;;;4.72;;
60436;SDS011;46289;51.992;4.498;2022-09-09T11:56:05;20.35;;;5.30;;
60436;SDS011;46289;51.992;4.498;2022-09-09T11:58:43;18.33;;;5.63;;
60436;SDS011;46289;51.992;4.498;2022-09-09T12:04:16;11.75;;;5.10;;
60436;SDS011;46289;51.992;4.498;2022-09-09T12:07:01;12.93;;;4.65;;
60436;SDS011;46289;51.992;4.498;2022-09-09T12:09:40;15.27;;;5.38;;
60436;SDS011;46289;51.992;4.498;2022-09-09T12:12:26;8.85;;;4.93;;
60436;SDS011;46289;51.992;4.498;2022-09-09T12:14:59;11.20;;;5.00;;
60436;SDS011;46289;51.992;4.498;2022-09-09T12:17:48;11.27;;;6.05;;
60436;SDS011;46289;51.992;4.498;2022-09-09T12:20:20;13.80;;;6.22;;
60436;SDS011;46289;51.992;4.498;2022-09-09T12:22:58;12.35;;;5.60;;
60436;SDS011;46289;51.992;4.498;2022-09-09T12:29:01;12.05;;;5.43;;
60436;SDS011;46289;51.992;4.498;2022-09-09T12:31:41;9.10;;;4.05;;
60436;SDS011;46289;51.992;4.498;2022-09-09T12:34:20;11.20;;;4.63;;
60436;SDS011;46289;51.992;4.498;2022-09-09T12:37:04;9.38;;;4.90;;
60436;SDS011;46289;51.992;4.498;2022-09-09T12:39:46;8.48;;;5.25;;
60436;SDS011;46289;51.992;4.498;2022-09-09T12:42:21;12.30;;;6.57;;
60436;SDS011;46289;51.992;4.498;2022-09-09T12:44:55;13.38;;;6.13;;
60436;SDS011;46289;51.992;4.498;2022-09-09T12:47:29;12.73;;;6.32;;
60436;SDS011;46289;51.992;4.498;2022-09-09T12:50:17;13.40;;;6.13;;
60436;SDS011;46289;51.992;4.498;2022-09-09T12:52:53;12.55;;;5.53;;
60436;SDS011;46289;51.992;4.498;2022-09-09T12:55:28;10.48;;;6.10;;
60436;SDS011;46289;51.992;4.498;2022-09-09T12:58:00;11.27;;;5.40;;
60436;SDS011;46289;51.992;4.498;2022-09-09T13:00:32;10.32;;;4.97;;
60436;SDS011;46289;51.992;4.498;2022-09-09T13:03:16;10.32;;;5.00;;
60436;SDS011;46289;51.992;4.498;2022-09-09T13:05:50;11.30;;;5.55;;
60436;SDS011;46289;51.992;4.498;2022-09-09T13:08:20;8.68;;;4.75;;
60436;SDS011;46289;51.992;4.498;2022-09-09T13:10:52;10.48;;;5.10;;
60436;SDS011;46289;51.992;4.498;2022-09-09T13:13:29;7.07;;;3.78;;
60436;SDS011;46289;51.992;4.498;2022-09-09T13:16:05;6.03;;;3.55;;
60436;SDS011;46289;51.992;4.498;2022-09-09T13:18:37;7.40;;;3.38;;
60436;SDS011;46289;51.992;4.498;2022-09-09T13:21:13;5.45;;;3.40;;
60436;SDS011;46289;51.992;4.498;2022-09-09T13:23:48;6.53;;;3.53;;
60436;SDS011;46289;51.992;4.498;2022-09-09T13:26:20;7.07;;;3.22;;
60436;SDS011;46289;51.992;4.498;2022-09-09T13:28:53;5.65;;;3.00;;
60436;SDS011;46289;51.992;4.498;2022-09-09T13:31:24;5.85;;;3.35;;
60436;SDS011;46289;51.992;4.498;2022-09-09T13:33:59;8.57;;;3.22;;
60436;SDS011;46289;51.992;4.498;2022-09-09T13:36:46;8.73;;;3.55;;
60436;SDS011;46289;51.992;4.498;2022-09-09T13:39:25;8.15;;;3.60;;
60436;SDS011;46289;51.992;4.498;2022-09-09T13:41:54;6.63;;;3.40;;
60436;SDS011;46289;51.992;4.498;2022-09-09T13:44:28;7.57;;;3.08;;
60436;SDS011;46289;51.992;4.498;2022-09-09T13:47:01;6.53;;;3.33;;
60436;SDS011;46289;51.992;4.498;2022-09-09T13:49:35;10.10;;;3.65;;
60436;SDS011;46289;51.992;4.498;2022-09-09T13:52:11;10.60;;;3.90;;
60436;SDS011;46289;51.992;4.498;2022-09-09T13:54:46;8.70;;;3.95;;
60436;SDS011;46289;51.992;4.498;2022-09-09T13:57:18;6.05;;;3.50;;
60436;SDS011;46289;51.992;4.498;2022-09-09T13:59:51;9.52;;;3.40;;
60436;SDS011;46289;51.992;4.498;2022-09-09T14:02:31;8.57;;;3.60;;
60436;SDS011;46289;51.992;4.498;2022-09-09T14:05:01;6.82;;;3.55;;
60436;SDS011;46289;51.992;4.498;2022-09-09T14:07:37;8.93;;;3.70;;
60436;SDS011;46289;51.992;4.498;2022-09-09T14:10:09;9.95;;;3.15;;
60436;SDS011;46289;51.992;4.498;2022-09-09T14:12:39;9.40;;;3.63;;
60436;SDS011;46289;51.992;4.498;2022-09-09T14:15:09;6.05;;;3.03;;
60436;SDS011;46289;51.992;4.498;2022-09-09T14:17:40;7.75;;;2.92;;
60436;SDS011;46289;51.992;4.498;2022-09-09T14:20:10;6.13;;;2.58;;
60436;SDS011;46289;51.992;4.498;2022-09-09T14:22:44;6.72;;;3.10;;
60436;SDS011;46289;51.992;4.498;2022-09-09T14:25:14;7.22;;;2.53;;
60436;SDS011;46289;51.992;4.498;2022-09-09T14:27:44;6.60;;;3.90;;
60436;SDS011;46289;51.992;4.498;2022-09-09T14:30:14;7.40;;;2.85;;
60436;SDS011;46289;51.992;4.498;2022-09-09T14:32:44;6.45;;;2.30;;
60436;SDS011;46289;51.992;4.498;2022-09-09T14:35:13;6.50;;;2.33;;
60436;SDS011;46289;51.992;4.498;2022-09-09T14:37:46;7.57;;;3.33;;
60436;SDS011;46289;51.992;4.498;2022-09-09T14:40:16;8.52;;;2.90;;
60436;SDS011;46289;51.992;4.498;2022-09-09T14:42:45;7.35;;;2.75;;
60436;SDS011;46289;51.992;4.498;2022-09-09T14:45:15;8.23;;;2.72;;
60436;SDS011;46289;51.992;4.498;2022-09-09T14:47:45;7.35;;;2.63;;
60436;SDS011;46289;51.992;4.498;2022-09-09T14:50:15;10.27;;;3.45;;
60436;SDS011;46289;51.992;4.498;2022-09-09T14:52:48;4.22;;;2.40;;
60436;SDS011;46289;51.992;4.498;2022-09-09T14:55:18;7.53;;;2.43;;
60436;SDS011;46289;51.992;4.498;2022-09-09T14:57:48;6.95;;;2.40;;
60436;SDS011;46289;51.992;4.498;2022-09-09T15:00:18;6.43;;;2.30;;
60436;SDS011;46289;51.992;4.498;2022-09-09T15:02:48;4.20;;;2.55;;
60436;SDS011;46289;51.992;4.498;2022-09-09T15:05:23;8.88;;;2.20;;
60436;SDS011;46289;51.992;4.498;2022-09-09T15:08:00;7.68;;;2.47;;
60436;SDS011;46289;51.992;4.498;2022-09-09T15:13:00;10.68;;;2.67;;
60436;SDS011;46289;51.992;4.498;2022-09-09T15:15:31;7.68;;;2.33;;
60436;SDS011;46289;51.992;4.498;2022-09-09T15:18:04;6.20;;;2.40;;
60436;SDS011;46289;51.992;4.498;2022-09-09T15:20:34;4.85;;;2.25;;
60436;SDS011;46289;51.992;4.498;2022-09-09T15:23:08;8.40;;;2.20;;
60436;SDS011;46289;51.992;4.498;2022-09-09T15:25:38;6.03;;;2.33;;
60436;SDS011;46289;51.992;4.498;2022-09-09T15:28:08;6.10;;;2.40;;
60436;SDS011;46289;51.992;4.498;2022-09-09T15:30:39;6.63;;;2.65;;
60436;SDS011;46289;51.992;4.498;2022-09-09T15:33:11;7.00;;;2.37;;
60436;SDS011;46289;51.992;4.498;2022-09-09T15:35:41;7.07;;;2.42;;
60436;SDS011;46289;51.992;4.498;2022-09-09T15:38:14;10.93;;;2.90;;
60436;SDS011;46289;51.992;4.498;2022-09-09T15:43:24;9.73;;;2.90;;
60436;SDS011;46289;51.992;4.498;2022-09-09T15:45:56;11.82;;;3.60;;
60436;SDS011;46289;51.992;4.498;2022-09-09T15:48:35;12.65;;;4.07;;